Time;durP1;ratioP1;P1;durP2;ratioP2;P2;SDS_P1;SDS_P2;PMS_P1;PMS_P2;Temp;Humidity;BMP_temperature;BMP_pressure;BME280_temperature;BME280_humidity;BME280_pressure;Samples;Min_cycle;Max_cycle;Signal;HPM_P1;HPM_P2
2023/12/06 00:01:29;;;;;;;5.57;3.58;;;;;;;;;;5081142;28;20722;-84
2023/12/06 00:03:55;;;;;;;4.55;3.40;;;;;;;;;;5080303;28;20384;-84
2023/12/06 00:06:22;;;;;;;4.10;3.70;;;;;;;;;;5079952;28;21279;-84
2023/12/06 00:08:48;;;;;;;5.38;3.60;;;;;;;;;;5080110;28;20376;-84
2023/12/06 00:11:14;;;;;;;6.05;4.03;;;;;;;;;;5080589;28;20387;-84
2023/12/06 00:13:40;;;;;;;4.43;3.50;;;;;;;;;;5079857;28;20372;-84
2023/12/06 00:16:06;;;;;;;5.20;3.60;;;;;;;;;;5080800;28;20468;-84
2023/12/06 00:18:32;;;;;;;4.38;3.50;;;;;;;;;;5079644;28;20464;-84
2023/12/06 00:20:58;;;;;;;4.35;3.67;;;;;;;;;;5079819;28;20407;-84
2023/12/06 00:23:24;;;;;;;4.18;3.55;;;;;;;;;;5080325;28;20379;-84
2023/12/06 00:25:50;;;;;;;5.30;3.63;;;;;;;;;;5079591;28;20379;-84
2023/12/06 00:28:16;;;;;;;8.63;3.87;;;;;;;;;;5079541;28;20411;-84
2023/12/06 00:30:42;;;;;;;5.50;4.18;;;;;;;;;;5079853;28;20436;-84
2023/12/06 00:33:08;;;;;;;5.68;3.53;;;;;;;;;;5080310;28;20376;-84
2023/12/06 00:35:34;;;;;;;5.70;3.88;;;;;;;;;;5080031;28;20805;-84
2023/12/06 00:38:00;;;;;;;7.40;3.97;;;;;;;;;;5079670;28;20400;-84
2023/12/06 00:40:26;;;;;;;7.40;4.40;;;;;;;;;;5080012;28;20380;-84
2023/12/06 00:42:52;;;;;;;9.20;4.45;;;;;;;;;;5079654;28;20753;-83
2023/12/06 00:45:18;;;;;;;6.53;4.20;;;;;;;;;;5079492;28;20383;-84
2023/12/06 00:47:44;;;;;;;5.80;4.30;;;;;;;;;;5079016;28;20420;-84
2023/12/06 00:50:10;;;;;;;5.18;4.15;;;;;;;;;;5079260;28;20411;-83
2023/12/06 00:52:36;;;;;;;6.05;4.10;;;;;;;;;;5079299;28;20383;-84
2023/12/06 00:55:03;;;;;;;5.65;4.53;;;;;;;;;;5078889;28;20445;-84
2023/12/06 00:57:29;;;;;;;6.53;4.40;;;;;;;;;;5078943;28;20368;-84
2023/12/06 00:59:55;;;;;;;7.33;4.87;;;;;;;;;;5079474;28;20734;-84
2023/12/06 01:02:21;;;;;;;6.93;4.53;;;;;;;;;;5079168;28;20387;-84
2023/12/06 01:04:50;;;;;;;5.53;4.50;;;;;;;;;;5060301;28;20380;-84
2023/12/06 01:07:17;;;;;;;5.13;4.20;;;;;;;;;;5078431;28;20482;-83
2023/12/06 01:09:43;;;;;;;5.32;4.43;;;;;;;;;;5067377;28;20826;-83
2023/12/06 01:12:09;;;;;;;4.75;4.13;;;;;;;;;;5079178;28;20375;-83
2023/12/06 01:14:35;;;;;;;6.90;4.00;;;;;;;;;;5078702;28;20401;-83
2023/12/06 01:17:01;;;;;;;5.33;4.07;;;;;;;;;;5089162;28;20406;-83
2023/12/06 01:19:27;;;;;;;5.45;4.05;;;;;;;;;;5047741;28;20389;-83
2023/12/06 01:21:53;;;;;;;6.50;3.78;;;;;;;;;;5058467;28;20385;-83
2023/12/06 01:24:19;;;;;;;3.75;3.35;;;;;;;;;;5058316;28;20400;-83
2023/12/06 01:26:45;;;;;;;5.85;3.85;;;;;;;;;;5057698;28;20939;-84
2023/12/06 01:29:11;;;;;;;5.90;3.85;;;;;;;;;;5058347;28;20413;-84
2023/12/06 01:31:38;;;;;;;6.40;3.72;;;;;;;;;;5058654;28;20394;-83
2023/12/06 01:34:05;;;;;;;5.63;3.78;;;;;;;;;;5057503;28;20790;-84
2023/12/06 01:36:31;;;;;;;6.15;3.78;;;;;;;;;;5057808;28;20519;-84
2023/12/06 01:38:57;;;;;;;5.32;4.00;;;;;;;;;;5040238;28;20377;-83
2023/12/06 01:41:23;;;;;;;3.83;3.25;;;;;;;;;;5058245;28;20464;-84
2023/12/06 01:43:49;;;;;;;5.82;3.30;;;;;;;;;;5058500;28;20858;-84
2023/12/06 01:46:15;;;;;;;4.38;3.63;;;;;;;;;;5057467;28;20416;-83
2023/12/06 01:48:43;;;;;;;5.10;3.70;;;;;;;;;;5040272;28;21130;-83
2023/12/06 01:51:09;;;;;;;6.72;3.90;;;;;;;;;;5058508;28;20395;-83
2023/12/06 01:53:35;;;;;;;5.50;3.65;;;;;;;;;;5058591;28;20843;-83
2023/12/06 01:56:02;;;;;;;6.15;3.83;;;;;;;;;;5058383;28;20401;-84
2023/12/06 01:58:29;;;;;;;3.93;3.30;;;;;;;;;;5058850;28;20465;-83
2023/12/06 02:00:55;;;;;;;6.57;3.60;;;;;;;;;;5058527;28;20509;-84
2023/12/06 02:03:21;;;;;;;4.75;3.75;;;;;;;;;;5039959;28;20476;-83
2023/12/06 02:05:48;;;;;;;4.10;3.70;;;;;;;;;;5058035;28;20393;-84
2023/12/06 02:08:14;;;;;;;4.60;3.85;;;;;;;;;;5058045;28;20392;-84
2023/12/06 02:10:40;;;;;;;4.78;3.65;;;;;;;;;;5057284;28;20373;-83
2023/12/06 02:13:06;;;;;;;6.45;3.70;;;;;;;;;;5057765;28;20898;-84
2023/12/06 02:15:32;;;;;;;3.90;3.13;;;;;;;;;;5058222;28;20409;-83
2023/12/06 02:17:58;;;;;;;4.28;3.30;;;;;;;;;;5069229;28;20375;-84
2023/12/06 02:20:25;;;;;;;4.07;3.15;;;;;;;;;;5079365;28;20808;-84
2023/12/06 02:22:52;;;;;;;5.82;3.35;;;;;;;;;;5077684;28;20391;-84
2023/12/06 02:25:18;;;;;;;4.13;2.95;;;;;;;;;;5077255;28;20383;-83
2023/12/06 02:27:44;;;;;;;3.78;3.45;;;;;;;;;;5076653;28;20379;-83
2023/12/06 02:30:11;;;;;;;4.90;3.28;;;;;;;;;;5076927;28;20782;-83
2023/12/06 02:32:37;;;;;;;4.22;3.25;;;;;;;;;;5076432;28;20746;-83
2023/12/06 02:35:06;;;;;;;8.00;3.60;;;;;;;;;;5077245;28;20388;-83
2023/12/06 02:37:33;;;;;;;6.88;3.63;;;;;;;;;;5076451;28;20423;-84
2023/12/06 02:40:00;;;;;;;5.55;3.40;;;;;;;;;;5075798;28;20411;-83
2023/12/06 02:42:26;;;;;;;5.28;3.63;;;;;;;;;;5076671;28;20379;-83
2023/12/06 02:44:52;;;;;;;6.60;3.67;;;;;;;;;;5075884;28;20392;-83
2023/12/06 02:47:18;;;;;;;5.20;3.80;;;;;;;;;;5058205;28;20423;-83
2023/12/06 02:49:44;;;;;;;4.28;3.53;;;;;;;;;;5076240;28;20395;-83
2023/12/06 02:52:12;;;;;;;5.35;4.20;;;;;;;;;;5075725;28;20379;-83
2023/12/06 02:54:38;;;;;;;6.18;4.07;;;;;;;;;;5059021;28;20380;-83
2023/12/06 02:57:04;;;;;;;7.35;3.90;;;;;;;;;;5079967;28;20407;-83
2023/12/06 02:59:30;;;;;;;6.18;3.45;;;;;;;;;;5080249;28;20454;-83
2023/12/06 03:01:56;;;;;;;5.10;3.40;;;;;;;;;;5079820;28;20408;-83
2023/12/06 03:04:22;;;;;;;5.40;3.38;;;;;;;;;;5079090;28;20391;-83
2023/12/06 03:06:48;;;;;;;3.85;3.45;;;;;;;;;;5079921;28;20375;-83
2023/12/06 03:09:14;;;;;;;5.82;4.07;;;;;;;;;;5079100;28;20394;-83
2023/12/06 03:11:40;;;;;;;5.50;3.30;;;;;;;;;;5079223;28;20376;-83
2023/12/06 03:14:06;;;;;;;4.65;3.53;;;;;;;;;;5079354;28;20379;-83
2023/12/06 03:16:33;;;;;;;4.28;3.60;;;;;;;;;;5079360;28;20478;-83
2023/12/06 03:18:59;;;;;;;7.88;3.90;;;;;;;;;;5079812;28;20390;-83
2023/12/06 03:21:25;;;;;;;4.93;3.50;;;;;;;;;;5079584;28;20849;-83
2023/12/06 03:23:51;;;;;;;7.45;3.85;;;;;;;;;;5079450;28;20455;-82
2023/12/06 03:26:17;;;;;;;5.45;3.78;;;;;;;;;;5078953;28;20379;-83
2023/12/06 03:28:43;;;;;;;6.80;3.90;;;;;;;;;;5073960;28;20396;-83
2023/12/06 03:31:09;;;;;;;7.13;3.70;;;;;;;;;;5059429;28;20436;-83
2023/12/06 03:33:35;;;;;;;4.80;3.50;;;;;;;;;;5059897;28;20438;-83
2023/12/06 03:36:01;;;;;;;4.50;3.17;;;;;;;;;;5059411;28;20405;-84
2023/12/06 03:38:27;;;;;;;4.60;3.30;;;;;;;;;;5059410;28;20377;-83
2023/12/06 03:40:53;;;;;;;4.00;3.15;;;;;;;;;;5059609;28;20380;-84
2023/12/06 03:43:19;;;;;;;4.90;3.57;;;;;;;;;;5041240;28;20816;-83
2023/12/06 03:45:45;;;;;;;5.25;3.08;;;;;;;;;;5059058;28;20458;-83
2023/12/06 03:48:11;;;;;;;4.13;3.00;;;;;;;;;;5057676;28;20413;-83
2023/12/06 03:50:37;;;;;;;5.25;3.67;;;;;;;;;;5057113;28;20752;-83
2023/12/06 03:53:03;;;;;;;4.38;2.90;;;;;;;;;;5057697;28;20389;-83
2023/12/06 03:55:29;;;;;;;3.73;3.00;;;;;;;;;;5057677;28;20457;-83
2023/12/06 03:57:55;;;;;;;7.32;3.22;;;;;;;;;;5057301;28;20803;-83
2023/12/06 04:00:21;;;;;;;4.82;2.90;;;;;;;;;;5057887;28;20365;-83
2023/12/06 04:02:47;;;;;;;4.57;2.85;;;;;;;;;;5057716;28;20867;-83
2023/12/06 04:05:13;;;;;;;6.05;3.15;;;;;;;;;;5056322;28;20579;-83
2023/12/06 04:07:39;;;;;;;3.93;2.83;;;;;;;;;;5056475;28;21035;-83
2023/12/06 04:10:05;;;;;;;4.18;2.75;;;;;;;;;;5056994;28;20373;-83
2023/12/06 04:12:31;;;;;;;4.75;3.25;;;;;;;;;;5056731;28;20700;-83
2023/12/06 04:14:57;;;;;;;4.53;2.58;;;;;;;;;;5056973;28;20473;-83
2023/12/06 04:17:23;;;;;;;4.55;2.90;;;;;;;;;;5057220;28;20397;-83
2023/12/06 04:19:49;;;;;;;4.53;2.88;;;;;;;;;;5061688;28;20402;-82
2023/12/06 04:22:15;;;;;;;5.20;2.97;;;;;;;;;;5097914;28;20381;-83
2023/12/06 04:24:41;;;;;;;3.42;2.70;;;;;;;;;;5097403;28;20836;-83
2023/12/06 04:27:07;;;;;;;3.45;2.60;;;;;;;;;;5097773;28;20389;-83
2023/12/06 04:29:33;;;;;;;4.43;2.50;;;;;;;;;;5097468;28;20378;-83
2023/12/06 04:31:59;;;;;;;3.20;2.72;;;;;;;;;;5096803;28;20382;-85
2023/12/06 04:34:25;;;;;;;4.35;2.60;;;;;;;;;;5097214;28;20378;-82
2023/12/06 04:36:51;;;;;;;3.30;2.83;;;;;;;;;;5096961;28;20409;-84
2023/12/06 04:39:17;;;;;;;3.45;2.70;;;;;;;;;;5096061;28;20370;-82
2023/12/06 04:41:43;;;;;;;5.32;3.13;;;;;;;;;;5095951;28;20374;-83
2023/12/06 04:44:09;;;;;;;5.20;2.70;;;;;;;;;;5095677;28;20381;-82
2023/12/06 04:46:35;;;;;;;4.25;2.70;;;;;;;;;;5031128;28;1819566;-83
2023/12/06 04:49:01;;;;;;;3.38;2.60;;;;;;;;;;5091310;28;20395;-83
2023/12/06 04:51:27;;;;;;;4.03;2.85;;;;;;;;;;5076978;28;20884;-83
2023/12/06 04:53:54;;;;;;;3.90;3.03;;;;;;;;;;5077570;28;20423;-82
2023/12/06 04:56:20;;;;;;;3.63;2.60;;;;;;;;;;5076475;28;20410;-83
2023/12/06 04:58:46;;;;;;;5.47;3.03;;;;;;;;;;5075437;28;20379;-82
2023/12/06 05:01:12;;;;;;;5.43;2.70;;;;;;;;;;5077697;28;20388;-83
2023/12/06 05:03:38;;;;;;;3.30;3.10;;;;;;;;;;5076634;28;20368;-82
2023/12/06 05:06:04;;;;;;;5.00;2.83;;;;;;;;;;5076082;28;20382;-82
2023/12/06 05:08:30;;;;;;;3.88;3.05;;;;;;;;;;5077570;28;20399;-83
2023/12/06 05:10:56;;;;;;;5.22;3.30;;;;;;;;;;5076331;28;20388;-83
2023/12/06 05:13:22;;;;;;;5.97;3.67;;;;;;;;;;5077312;28;20391;-83
2023/12/06 05:15:50;;;;;;;7.18;4.15;;;;;;;;;;5077235;28;20402;-82
2023/12/06 05:18:16;;;;;;;5.15;3.80;;;;;;;;;;5075916;28;20424;-82
2023/12/06 05:20:42;;;;;;;5.05;3.80;;;;;;;;;;5077289;28;20375;-82
2023/12/06 05:23:09;;;;;;;5.28;3.80;;;;;;;;;;5056717;28;20463;-83
2023/12/06 05:25:34;;;;;;;5.03;4.00;;;;;;;;;;5076705;28;20392;-82
2023/12/06 05:28:00;;;;;;;6.80;4.38;;;;;;;;;;5075409;28;20387;-83
2023/12/06 05:30:26;;;;;;;5.22;4.03;;;;;;;;;;5074671;28;20384;-82
2023/12/06 05:32:54;;;;;;;5.80;4.30;;;;;;;;;;5074770;28;20486;-83
2023/12/06 05:35:20;;;;;;;5.10;4.57;;;;;;;;;;5076470;28;20385;-83
2023/12/06 05:37:46;;;;;;;6.30;4.67;;;;;;;;;;5075784;28;20402;-83
2023/12/06 05:40:12;;;;;;;6.05;4.40;;;;;;;;;;5075981;28;20388;-83
2023/12/06 05:42:39;;;;;;;7.15;4.80;;;;;;;;;;5076063;28;20391;-83
2023/12/06 05:45:05;;;;;;;5.57;4.47;;;;;;;;;;5076410;28;20434;-83
2023/12/06 05:47:31;;;;;;;4.97;4.38;;;;;;;;;;5075678;28;20402;-83
2023/12/06 05:49:57;;;;;;;6.13;4.50;;;;;;;;;;5076124;28;20402;-83
2023/12/06 05:52:23;;;;;;;5.13;4.00;;;;;;;;;;5075759;28;20383;-83
2023/12/06 05:54:49;;;;;;;5.10;4.40;;;;;;;;;;5075859;28;20418;-83
2023/12/06 05:57:15;;;;;;;5.75;4.60;;;;;;;;;;5075594;28;20404;-83
2023/12/06 05:59:41;;;;;;;6.10;4.07;;;;;;;;;;5075871;28;20379;-83
2023/12/06 06:02:07;;;;;;;5.13;4.30;;;;;;;;;;5076107;28;20372;-83
2023/12/06 06:04:33;;;;;;;5.35;4.07;;;;;;;;;;5075886;28;20380;-83
2023/12/06 06:06:59;;;;;;;4.28;3.88;;;;;;;;;;5076525;28;20383;-83
2023/12/06 06:09:25;;;;;;;5.68;3.75;;;;;;;;;;5076093;28;20466;-83
2023/12/06 06:11:51;;;;;;;5.38;3.75;;;;;;;;;;5075510;28;20372;-83
2023/12/06 06:14:17;;;;;;;5.97;3.80;;;;;;;;;;5076182;28;20395;-83
2023/12/06 06:16:43;;;;;;;5.65;3.72;;;;;;;;;;5075923;28;20403;-83
2023/12/06 06:19:09;;;;;;;5.13;3.97;;;;;;;;;;5076245;28;20837;-83
2023/12/06 06:21:35;;;;;;;4.75;4.18;;;;;;;;;;5075858;28;20376;-82
2023/12/06 06:24:01;;;;;;;4.15;3.63;;;;;;;;;;5094018;28;20732;-83
2023/12/06 06:26:27;;;;;;;4.93;3.80;;;;;;;;;;5096060;28;20459;-83
2023/12/06 06:28:52;;;;;;;7.47;4.40;;;;;;;;;;5095702;28;20472;-83
2023/12/06 06:31:18;;;;;;;6.70;3.87;;;;;;;;;;5096256;28;20867;-82
2023/12/06 06:33:44;;;;;;;5.35;3.78;;;;;;;;;;5095957;28;20386;-82
2023/12/06 06:36:10;;;;;;;3.90;3.50;;;;;;;;;;5096489;28;20463;-83
2023/12/06 06:38:37;;;;;;;4.68;3.65;;;;;;;;;;5095880;28;20453;-83
2023/12/06 06:41:04;;;;;;;5.95;4.20;;;;;;;;;;5083972;28;20841;-82
2023/12/06 06:43:30;;;;;;;4.53;3.65;;;;;;;;;;5075659;28;20376;-83
2023/12/06 06:45:56;;;;;;;4.87;3.70;;;;;;;;;;5075698;28;20401;-83
2023/12/06 06:48:22;;;;;;;7.70;4.20;;;;;;;;;;5075207;28;20404;-83
2023/12/06 06:50:48;;;;;;;3.88;3.47;;;;;;;;;;5075792;28;20372;-83
2023/12/06 06:53:14;;;;;;;4.00;3.60;;;;;;;;;;5075390;28;20791;-82
2023/12/06 06:55:40;;;;;;;5.40;3.60;;;;;;;;;;5075726;28;20400;-83
2023/12/06 06:58:06;;;;;;;5.97;3.65;;;;;;;;;;5075945;28;20861;-83
2023/12/06 07:00:32;;;;;;;4.47;4.07;;;;;;;;;;5075400;28;20425;-83
2023/12/06 07:02:57;;;;;;;5.23;3.60;;;;;;;;;;5075449;28;20918;-85
2023/12/06 07:05:23;;;;;;;3.45;3.10;;;;;;;;;;5075566;28;20379;-83
2023/12/06 07:07:49;;;;;;;3.85;3.30;;;;;;;;;;5072443;28;20398;-83
2023/12/06 07:10:15;;;;;;;5.07;3.40;;;;;;;;;;5066117;28;20727;-83
2023/12/06 07:12:41;;;;;;;4.88;3.67;;;;;;;;;;5076255;28;20914;-82
2023/12/06 07:15:14;;;;;;;5.10;3.40;;;;;;;;;;5075716;28;20387;-83
2023/12/06 07:17:40;;;;;;;3.55;3.20;;;;;;;;;;5075040;28;20918;-82
2023/12/06 07:20:07;;;;;;;4.45;3.30;;;;;;;;;;5076346;28;20392;-82
2023/12/06 07:22:33;;;;;;;4.22;2.72;;;;;;;;;;5077332;28;20390;-82
2023/12/06 07:24:59;;;;;;;4.77;3.20;;;;;;;;;;5077290;28;20379;-82
2023/12/06 07:27:27;;;;;;;3.53;2.83;;;;;;;;;;5074274;28;20395;-82
2023/12/06 07:29:53;;;;;;;3.28;2.83;;;;;;;;;;5074142;28;20432;-81
2023/12/06 07:32:19;;;;;;;4.00;2.97;;;;;;;;;;5072645;28;20394;-81
2023/12/06 07:34:45;;;;;;;3.65;2.80;;;;;;;;;;5057159;28;20855;-81
2023/12/06 07:37:11;;;;;;;2.95;2.65;;;;;;;;;;5052784;28;20405;-82
2023/12/06 07:39:37;;;;;;;3.58;2.90;;;;;;;;;;5053461;28;20373;-82
2023/12/06 07:42:03;;;;;;;3.50;2.87;;;;;;;;;;5057621;28;20454;-81
2023/12/06 07:44:29;;;;;;;4.18;2.90;;;;;;;;;;5057394;28;20385;-82
2023/12/06 07:46:55;;;;;;;4.78;3.45;;;;;;;;;;5056405;28;20779;-81
2023/12/06 07:49:21;;;;;;;4.35;3.45;;;;;;;;;;5057561;28;20377;-81
2023/12/06 07:51:47;;;;;;;5.45;3.58;;;;;;;;;;5057381;28;20386;-81
2023/12/06 07:54:14;;;;;;;4.10;3.70;;;;;;;;;;5056413;28;20389;-81
2023/12/06 07:56:41;;;;;;;4.72;3.47;;;;;;;;;;5056162;28;20458;-82
2023/12/06 07:59:06;;;;;;;3.80;3.42;;;;;;;;;;5057186;28;20374;-82
2023/12/06 08:01:32;;;;;;;4.18;3.63;;;;;;;;;;5058892;28;20389;-82
2023/12/06 08:03:58;;;;;;;4.78;3.75;;;;;;;;;;5057913;28;20386;-82
2023/12/06 08:06:24;;;;;;;4.20;3.80;;;;;;;;;;5057921;28;20396;-82
2023/12/06 08:08:50;;;;;;;4.35;3.58;;;;;;;;;;5056086;28;20839;-80
2023/12/06 08:11:17;;;;;;;5.93;4.00;;;;;;;;;;5056595;28;20450;-81
2023/12/06 08:13:43;;;;;;;6.00;4.27;;;;;;;;;;5056594;28;20388;-81
2023/12/06 08:16:09;;;;;;;5.25;3.80;;;;;;;;;;5056103;28;20413;-81
2023/12/06 08:18:35;;;;;;;4.45;3.65;;;;;;;;;;5057086;28;20374;-81
2023/12/06 08:21:04;;;;;;;4.40;3.83;;;;;;;;;;5056143;28;20465;-80
2023/12/06 08:23:30;;;;;;;4.25;3.67;;;;;;;;;;5056799;28;20414;-81
2023/12/06 08:25:56;;;;;;;6.47;3.80;;;;;;;;;;5056748;28;20850;-81
2023/12/06 08:28:22;;;;;;;6.47;3.95;;;;;;;;;;5056107;28;20381;-81
2023/12/06 08:30:48;;;;;;;4.60;3.90;;;;;;;;;;5056188;28;20397;-80
2023/12/06 08:33:15;;;;;;;4.45;4.10;;;;;;;;;;5056118;28;20394;-80
2023/12/06 08:35:41;;;;;;;4.37;3.97;;;;;;;;;;5056195;28;20436;-81
2023/12/06 08:38:07;;;;;;;5.15;4.10;;;;;;;;;;5056617;28;20377;-81
2023/12/06 08:40:33;;;;;;;4.85;4.15;;;;;;;;;;5056401;28;20792;-80
2023/12/06 08:43:00;;;;;;;4.60;4.18;;;;;;;;;;5056149;28;20370;-82
2023/12/06 08:45:26;;;;;;;5.50;4.00;;;;;;;;;;5055860;28;20374;-81
2023/12/06 08:47:52;;;;;;;4.13;3.80;;;;;;;;;;5055835;28;20479;-81
2023/12/06 08:50:18;;;;;;;6.78;4.45;;;;;;;;;;5070427;28;20387;-80
2023/12/06 08:52:45;;;;;;;6.18;4.70;;;;;;;;;;5075662;28;20390;-81
2023/12/06 08:55:11;;;;;;;6.57;4.80;;;;;;;;;;5076527;28;20371;-80
2023/12/06 08:57:37;;;;;;;6.05;4.90;;;;;;;;;;5057878;28;20388;-81
2023/12/06 09:00:07;;;;;;;6.72;5.30;;;;;;;;;;5075207;28;20372;-80
2023/12/06 09:02:33;;;;;;;5.95;5.25;;;;;;;;;;5076168;28;20383;-80
2023/12/06 09:04:59;;;;;;;8.32;5.57;;;;;;;;;;5076100;28;20403;-79
2023/12/06 09:07:25;;;;;;;6.40;5.72;;;;;;;;;;5075759;28;20437;-80
2023/12/06 09:09:51;;;;;;;7.73;5.97;;;;;;;;;;5076175;28;20865;-80
2023/12/06 09:12:17;;;;;;;9.55;7.68;;;;;;;;;;5075827;28;20395;-81
2023/12/06 09:14:43;;;;;;;9.20;7.30;;;;;;;;;;5076215;28;20436;-80
2023/12/06 09:17:09;;;;;;;7.70;6.60;;;;;;;;;;5076816;28;20502;-80
2023/12/06 09:19:35;;;;;;;7.57;6.40;;;;;;;;;;5075993;28;20469;-80
2023/12/06 09:22:01;;;;;;;6.45;5.88;;;;;;;;;;5076098;28;20368;-80
2023/12/06 09:24:27;;;;;;;8.32;6.47;;;;;;;;;;5076681;28;20372;-80
2023/12/06 09:26:53;;;;;;;9.45;7.88;;;;;;;;;;5063650;28;20381;-80
2023/12/06 09:29:19;;;;;;;7.20;6.53;;;;;;;;;;5056799;28;20443;-80
2023/12/06 09:31:45;;;;;;;9.25;7.72;;;;;;;;;;5056033;28;20391;-80
2023/12/06 09:34:11;;;;;;;20.92;11.63;;;;;;;;;;5056456;28;20378;-80
2023/12/06 09:36:39;;;;;;;14.23;9.82;;;;;;;;;;5056015;28;20412;-79
2023/12/06 09:39:05;;;;;;;8.80;7.35;;;;;;;;;;5056441;28;20388;-79
2023/12/06 09:41:34;;;;;;;10.10;6.47;;;;;;;;;;5056316;28;20385;-79
2023/12/06 09:44:00;;;;;;;8.63;6.50;;;;;;;;;;5055740;28;20948;-79
2023/12/06 09:46:27;;;;;;;8.05;7.00;;;;;;;;;;5055588;28;20851;-79
2023/12/06 09:48:53;;;;;;;8.33;7.17;;;;;;;;;;5056249;28;20465;-79
2023/12/06 09:51:19;;;;;;;9.23;6.70;;;;;;;;;;5055781;28;20386;-80
2023/12/06 09:53:46;;;;;;;7.07;6.35;;;;;;;;;;5054949;28;20380;-80
2023/12/06 09:56:13;;;;;;;8.32;6.68;;;;;;;;;;5055427;28;20397;-80
2023/12/06 09:58:39;;;;;;;9.67;6.73;;;;;;;;;;5054679;28;20394;-80
2023/12/06 10:01:05;;;;;;;7.43;6.55;;;;;;;;;;5054432;28;20384;-82
2023/12/06 10:03:32;;;;;;;7.78;6.40;;;;;;;;;;5054920;28;20370;-80
2023/12/06 10:05:59;;;;;;;7.40;6.50;;;;;;;;;;5054702;28;20464;-80
2023/12/06 10:08:25;;;;;;;7.63;5.80;;;;;;;;;;5054458;28;20457;-82
2023/12/06 10:11:01;;;;;;;7.07;6.38;;;;;;;;;;5054894;28;20423;-81
2023/12/06 10:13:34;;;;;;;6.88;6.05;;;;;;;;;;5054134;28;20467;-81
2023/12/06 10:16:00;;;;;;;8.95;7.30;;;;;;;;;;5054302;28;20980;-81
2023/12/06 10:18:26;;;;;;;8.00;6.80;;;;;;;;;;5054436;28;20370;-80
2023/12/06 10:20:52;;;;;;;6.93;6.15;;;;;;;;;;5053907;28;20396;-80
2023/12/06 10:23:18;;;;;;;6.33;5.67;;;;;;;;;;5053778;28;20457;-80
2023/12/06 10:25:49;;;;;;;6.30;5.70;;;;;;;;;;5054310;28;20727;-80
2023/12/06 10:28:17;;;;;;;6.80;6.13;;;;;;;;;;5054543;28;20431;-80
2023/12/06 10:30:43;;;;;;;6.85;5.80;;;;;;;;;;5053540;28;20392;-82
2023/12/06 10:33:10;;;;;;;5.85;5.28;;;;;;;;;;5054293;28;20456;-80
2023/12/06 10:35:36;;;;;;;6.05;4.72;;;;;;;;;;5053547;28;20433;-82
2023/12/06 10:38:03;;;;;;;6.90;4.03;;;;;;;;;;5053755;28;20457;-81
2023/12/06 10:40:29;;;;;;;5.75;4.28;;;;;;;;;;5054415;28;20422;-80
2023/12/06 10:43:02;;;;;;;4.68;4.18;;;;;;;;;;5052495;28;20377;-80
2023/12/06 10:45:31;;;;;;;4.33;3.93;;;;;;;;;;5054748;28;20381;-80
2023/12/06 10:47:58;;;;;;;4.30;3.33;;;;;;;;;;5053863;28;20436;-80
2023/12/06 10:50:24;;;;;;;3.42;3.10;;;;;;;;;;5055701;28;20385;-81
2023/12/06 10:52:50;;;;;;;4.50;2.92;;;;;;;;;;5070839;28;20376;-79
2023/12/06 10:55:19;;;;;;;3.25;2.83;;;;;;;;;;5074214;28;20376;-81
2023/12/06 10:57:45;;;;;;;4.03;2.88;;;;;;;;;;5074888;28;20420;-80
2023/12/06 11:00:11;;;;;;;2.97;2.58;;;;;;;;;;5075382;28;20384;-80
2023/12/06 11:02:38;;;;;;;2.85;2.20;;;;;;;;;;5073688;28;20876;-81
2023/12/06 11:05:05;;;;;;;2.30;2.10;;;;;;;;;;5074856;28;20468;-81
2023/12/06 11:07:31;;;;;;;2.70;2.50;;;;;;;;;;5074579;28;20416;-79
2023/12/06 11:10:16;;;;;;;2.20;2.00;;;;;;;;;;5074410;28;20394;-80
2023/12/06 11:13:02;;;;;;;3.42;2.45;;;;;;;;;;5074072;28;20454;-80
2023/12/06 11:15:39;;;;;;;3.35;2.33;;;;;;;;;;5025246;28;20440;-81
2023/12/06 11:18:10;;;;;;;2.50;2.30;;;;;;;;;;5078243;28;20443;-80
2023/12/06 11:20:38;;;;;;;2.50;2.00;;;;;;;;;;5077519;28;20444;-80
2023/12/06 11:23:04;;;;;;;2.47;2.10;;;;;;;;;;5076929;28;20380;-80
2023/12/06 11:25:30;;;;;;;2.42;2.22;;;;;;;;;;5076784;28;20368;-80
2023/12/06 11:27:56;;;;;;;2.20;2.00;;;;;;;;;;5077268;28;20375;-80
2023/12/06 11:30:22;;;;;;;2.30;2.10;;;;;;;;;;5078207;28;20388;-80
2023/12/06 11:32:53;;;;;;;2.20;1.92;;;;;;;;;;5063845;28;20381;-80
2023/12/06 11:35:19;;;;;;;2.10;1.90;;;;;;;;;;5056974;28;20430;-81
2023/12/06 11:37:54;;;;;;;2.00;1.67;;;;;;;;;;5056972;28;20917;-80
2023/12/06 11:40:32;;;;;;;2.13;1.60;;;;;;;;;;5056918;28;20381;-81
2023/12/06 11:42:58;;;;;;;1.60;1.50;;;;;;;;;;5057088;28;20377;-79
2023/12/06 11:45:24;;;;;;;1.80;1.53;;;;;;;;;;5056777;28;20381;-80
2023/12/06 11:47:52;;;;;;;1.60;1.50;;;;;;;;;;5055918;28;20417;-80
2023/12/06 11:50:18;;;;;;;1.55;1.45;;;;;;;;;;5057190;28;20853;-80
2023/12/06 11:52:50;;;;;;;2.28;2.08;;;;;;;;;;5056880;28;20392;-79
2023/12/06 11:55:19;;;;;;;2.08;1.65;;;;;;;;;;5056725;28;20430;-80
2023/12/06 11:58:01;;;;;;;1.60;1.50;;;;;;;;;;5056376;28;20401;-80
2023/12/06 12:00:31;;;;;;;1.60;1.50;;;;;;;;;;5056806;28;20378;-80
2023/12/06 12:03:00;;;;;;;1.42;1.30;;;;;;;;;;5056354;28;20435;-80
2023/12/06 12:05:26;;;;;;;1.50;1.40;;;;;;;;;;5057092;28;20776;-81
2023/12/06 12:07:52;;;;;;;1.90;1.80;;;;;;;;;;5056900;28;20378;-80
2023/12/06 12:10:19;;;;;;;1.88;1.77;;;;;;;;;;5056429;28;20377;-81
2023/12/06 12:12:48;;;;;;;1.88;1.77;;;;;;;;;;5055567;28;20391;-79
2023/12/06 12:15:16;;;;;;;2.00;1.80;;;;;;;;;;5055913;28;20377;-80
2023/12/06 12:17:42;;;;;;;1.60;1.50;;;;;;;;;;5056087;28;20390;-80
2023/12/06 12:20:09;;;;;;;2.60;1.90;;;;;;;;;;5056913;28;20388;-80
2023/12/06 12:22:48;;;;;;;4.35;1.60;;;;;;;;;;5056578;28;20392;-83
2023/12/06 12:25:14;;;;;;;2.80;1.40;;;;;;;;;;5056031;28;20435;-81
2023/12/06 12:27:40;;;;;;;2.40;1.70;;;;;;;;;;5055575;28;20387;-81
2023/12/06 12:30:10;;;;;;;2.20;1.23;;;;;;;;;;5055469;28;20384;-81
2023/12/06 12:32:45;;;;;;;1.50;1.38;;;;;;;;;;5057157;28;20863;-80
2023/12/06 12:35:11;;;;;;;2.35;1.70;;;;;;;;;;5059743;28;20438;-81
2023/12/06 12:37:37;;;;;;;1.90;1.80;;;;;;;;;;5058290;28;20409;-83
2023/12/06 12:40:04;;;;;;;2.60;2.00;;;;;;;;;;5056747;28;20374;-81
2023/12/06 12:42:30;;;;;;;2.58;2.10;;;;;;;;;;5056593;28;20374;-81
2023/12/06 12:44:57;;;;;;;1.53;1.43;;;;;;;;;;5056315;28;20386;-81
2023/12/06 12:47:23;;;;;;;1.83;1.45;;;;;;;;;;5056912;28;20462;-81
2023/12/06 12:49:50;;;;;;;1.60;1.50;;;;;;;;;;5057494;28;20538;-81
2023/12/06 12:52:16;;;;;;;1.70;1.60;;;;;;;;;;5057239;28;20382;-80
2023/12/06 12:54:42;;;;;;;1.90;1.60;;;;;;;;;;5057227;28;20973;-81
2023/12/06 12:57:08;;;;;;;2.00;1.70;;;;;;;;;;5070428;28;20411;-81
2023/12/06 12:59:36;;;;;;;1.75;1.65;;;;;;;;;;5076182;28;20406;-81
2023/12/06 13:02:03;;;;;;;1.65;1.55;;;;;;;;;;5077244;28;20462;-81
2023/12/06 13:04:29;;;;;;;1.50;1.40;;;;;;;;;;5077306;28;20376;-81
2023/12/06 13:06:55;;;;;;;1.90;1.60;;;;;;;;;;5077428;28;20386;-81
2023/12/06 13:09:21;;;;;;;2.22;2.03;;;;;;;;;;5070823;28;20402;-81
2023/12/06 13:11:47;;;;;;;1.77;1.67;;;;;;;;;;5072595;28;20521;-82
2023/12/06 13:14:15;;;;;;;2.10;1.90;;;;;;;;;;5077253;28;20433;-82
2023/12/06 13:16:41;;;;;;;1.90;1.60;;;;;;;;;;5076665;28;20434;-82
2023/12/06 13:19:07;;;;;;;1.83;1.73;;;;;;;;;;5077563;28;20391;-81
2023/12/06 13:21:33;;;;;;;2.00;1.90;;;;;;;;;;5077715;28;20378;-80
2023/12/06 13:24:00;;;;;;;1.77;1.67;;;;;;;;;;5077370;28;20400;-82
2023/12/06 13:26:26;;;;;;;1.90;1.70;;;;;;;;;;5076470;28;20483;-82
2023/12/06 13:28:52;;;;;;;1.90;1.80;;;;;;;;;;5077325;28;20737;-81
2023/12/06 13:31:17;;;;;;;2.10;2.00;;;;;;;;;;5077834;28;20387;-80
2023/12/06 13:33:43;;;;;;;3.03;2.40;;;;;;;;;;5076155;28;20761;-80
2023/12/06 13:36:09;;;;;;;2.42;2.17;;;;;;;;;;5075886;28;20415;-80
2023/12/06 13:38:35;;;;;;;2.40;2.20;;;;;;;;;;5076425;28;20388;-81
2023/12/06 13:41:01;;;;;;;2.42;2.10;;;;;;;;;;5072421;28;20400;-80
2023/12/06 13:43:27;;;;;;;2.38;2.17;;;;;;;;;;5075839;28;20384;-80
2023/12/06 13:45:53;;;;;;;2.78;2.58;;;;;;;;;;5076688;28;20482;-80
2023/12/06 13:48:19;;;;;;;2.80;2.60;;;;;;;;;;5076173;28;20419;-80
2023/12/06 13:50:45;;;;;;;2.47;2.17;;;;;;;;;;5076265;28;20738;-80
2023/12/06 13:53:11;;;;;;;2.33;2.13;;;;;;;;;;5076109;28;20797;-80
2023/12/06 13:55:37;;;;;;;2.37;2.17;;;;;;;;;;5074840;28;20460;-80
2023/12/06 13:58:03;;;;;;;2.55;2.35;;;;;;;;;;5076131;28;20384;-80
2023/12/06 14:00:29;;;;;;;2.50;2.28;;;;;;;;;;5075696;28;20432;-80
2023/12/06 14:02:55;;;;;;;2.60;2.40;;;;;;;;;;5075592;28;20384;-80
2023/12/06 14:05:21;;;;;;;2.92;2.72;;;;;;;;;;5076100;28;21071;-80
2023/12/06 14:07:47;;;;;;;2.83;2.40;;;;;;;;;;5075750;28;20741;-80
2023/12/06 14:10:13;;;;;;;2.88;2.63;;;;;;;;;;5075729;28;20372;-80
2023/12/06 14:12:39;;;;;;;3.37;3.03;;;;;;;;;;5075869;28;20441;-80
2023/12/06 14:15:06;;;;;;;4.55;3.20;;;;;;;;;;5075400;28;20471;-81
2023/12/06 14:17:33;;;;;;;3.60;3.20;;;;;;;;;;5075733;28;20495;-80
2023/12/06 14:19:59;;;;;;;2.92;2.72;;;;;;;;;;5066391;28;20386;-81
2023/12/06 14:22:25;;;;;;;2.50;2.30;;;;;;;;;;5095148;28;20412;-81
2023/12/06 14:24:51;;;;;;;2.42;2.22;;;;;;;;;;5095657;28;20378;-81
2023/12/06 14:27:17;;;;;;;2.47;2.25;;;;;;;;;;5095929;28;20752;-81
2023/12/06 14:29:43;;;;;;;2.92;2.70;;;;;;;;;;5095360;28;20438;-80
2023/12/06 14:32:09;;;;;;;2.78;2.55;;;;;;;;;;5095469;28;20806;-81
2023/12/06 14:34:35;;;;;;;3.03;2.83;;;;;;;;;;5094493;28;20397;-80
2023/12/06 14:37:01;;;;;;;3.53;3.22;;;;;;;;;;5093784;28;20398;-80
2023/12/06 14:39:27;;;;;;;3.78;3.33;;;;;;;;;;5094816;28;20428;-80